sensor_id;sensor_type;location;lat;lon;timestamp;P1;durP1;ratioP1;P2;durP2;ratioP2
36839;SDS011;24406;51.640;9.566;2024-03-23T00:56:04;14.73;;;6.65;;
36839;SDS011;24406;51.640;9.566;2024-03-23T01:01:07;12.55;;;5.85;;
36839;SDS011;24406;51.640;9.566;2024-03-23T01:06:11;14.25;;;6.40;;
36839;SDS011;24406;51.640;9.566;2024-03-23T01:11:15;9.85;;;5.80;;
36839;SDS011;24406;51.640;9.566;2024-03-23T01:16:24;10.10;;;6.55;;
36839;SDS011;24406;51.640;9.566;2024-03-23T01:21:27;11.65;;;5.72;;
36839;SDS011;24406;51.640;9.566;2024-03-23T01:26:28;8.93;;;5.60;;
36839;SDS011;24406;51.640;9.566;2024-03-23T01:31:30;11.43;;;5.25;;
36839;SDS011;24406;51.640;9.566;2024-03-23T01:36:33;9.65;;;5.03;;
36839;SDS011;24406;51.640;9.566;2024-03-23T01:41:35;12.98;;;5.97;;
36839;SDS011;24406;51.640;9.566;2024-03-23T01:46:38;9.50;;;5.78;;
36839;SDS011;24406;51.640;9.566;2024-03-23T01:51:43;9.63;;;5.82;;
36839;SDS011;24406;51.640;9.566;2024-03-23T01:56:46;13.20;;;5.03;;
36839;SDS011;24406;51.640;9.566;2024-03-23T02:01:47;7.60;;;4.10;;
36839;SDS011;24406;51.640;9.566;2024-03-23T02:06:50;9.48;;;4.50;;
36839;SDS011;24406;51.640;9.566;2024-03-23T02:11:52;4.85;;;3.35;;
36839;SDS011;24406;51.640;9.566;2024-03-23T02:16:53;5.65;;;3.95;;
36839;SDS011;24406;51.640;9.566;2024-03-23T02:21:56;6.43;;;3.05;;
36839;SDS011;24406;51.640;9.566;2024-03-23T02:26:59;6.93;;;3.00;;
36839;SDS011;24406;51.640;9.566;2024-03-23T02:32:01;7.50;;;3.58;;
36839;SDS011;24406;51.640;9.566;2024-03-23T02:37:10;7.40;;;3.67;;
36839;SDS011;24406;51.640;9.566;2024-03-23T02:43:29;7.60;;;3.10;;
36839;SDS011;24406;51.640;9.566;2024-03-23T02:48:32;5.20;;;2.95;;
36839;SDS011;24406;51.640;9.566;2024-03-23T02:53:34;8.18;;;3.65;;
36839;SDS011;24406;51.640;9.566;2024-03-23T02:58:38;5.80;;;3.78;;
36839;SDS011;24406;51.640;9.566;2024-03-23T03:03:40;5.72;;;3.25;;
36839;SDS011;24406;51.640;9.566;2024-03-23T03:08:42;8.27;;;4.03;;
36839;SDS011;24406;51.640;9.566;2024-03-23T03:13:47;8.93;;;3.60;;
36839;SDS011;24406;51.640;9.566;2024-03-23T03:18:49;9.02;;;3.40;;
36839;SDS011;24406;51.640;9.566;2024-03-23T03:23:57;8.55;;;3.67;;
36839;SDS011;24406;51.640;9.566;2024-03-23T03:29:01;9.95;;;3.95;;
36839;SDS011;24406;51.640;9.566;2024-03-23T03:34:03;4.20;;;3.20;;
36839;SDS011;24406;51.640;9.566;2024-03-23T03:39:04;9.27;;;4.30;;
36839;SDS011;24406;51.640;9.566;2024-03-23T03:44:08;6.07;;;4.13;;
36839;SDS011;24406;51.640;9.566;2024-03-23T03:49:13;7.28;;;4.28;;
36839;SDS011;24406;51.640;9.566;2024-03-23T03:54:15;6.97;;;4.00;;
36839;SDS011;24406;51.640;9.566;2024-03-23T03:59:21;9.50;;;3.58;;
36839;SDS011;24406;51.640;9.566;2024-03-23T04:04:23;8.90;;;3.85;;
36839;SDS011;24406;51.640;9.566;2024-03-23T04:09:24;7.35;;;3.63;;
36839;SDS011;24406;51.640;9.566;2024-03-23T04:14:28;12.68;;;4.05;;
36839;SDS011;24406;51.640;9.566;2024-03-23T04:19:30;8.52;;;3.25;;
36839;SDS011;24406;51.640;9.566;2024-03-23T04:24:32;6.88;;;3.72;;
36839;SDS011;24406;51.640;9.566;2024-03-23T04:29:35;14.68;;;4.20;;
36839;SDS011;24406;51.640;9.566;2024-03-23T04:34:36;12.57;;;4.43;;
36839;SDS011;24406;51.640;9.566;2024-03-23T04:39:38;9.50;;;3.15;;
36839;SDS011;24406;51.640;9.566;2024-03-23T04:44:41;8.48;;;4.13;;
36839;SDS011;24406;51.640;9.566;2024-03-23T04:49:43;6.78;;;3.35;;
36839;SDS011;24406;51.640;9.566;2024-03-23T04:54:45;7.72;;;3.30;;
36839;SDS011;24406;51.640;9.566;2024-03-23T04:59:48;4.60;;;2.88;;
36839;SDS011;24406;51.640;9.566;2024-03-23T05:04:49;6.10;;;3.00;;
36839;SDS011;24406;51.640;9.566;2024-03-23T05:09:51;8.27;;;3.00;;
36839;SDS011;24406;51.640;9.566;2024-03-23T05:14:55;4.93;;;3.22;;
36839;SDS011;24406;51.640;9.566;2024-03-23T05:19:57;6.13;;;2.75;;
36839;SDS011;24406;51.640;9.566;2024-03-23T05:24:59;4.57;;;2.47;;
36839;SDS011;24406;51.640;9.566;2024-03-23T05:30:02;3.00;;;1.90;;
36839;SDS011;24406;51.640;9.566;2024-03-23T05:35:09;3.13;;;1.80;;
36839;SDS011;24406;51.640;9.566;2024-03-23T05:40:14;8.55;;;2.83;;
36839;SDS011;24406;51.640;9.566;2024-03-23T05:45:17;5.63;;;2.67;;
36839;SDS011;24406;51.640;9.566;2024-03-23T05:50:19;6.78;;;3.05;;
36839;SDS011;24406;51.640;9.566;2024-03-23T05:55:21;4.20;;;2.60;;
36839;SDS011;24406;51.640;9.566;2024-03-23T06:00:24;6.53;;;3.00;;
36839;SDS011;24406;51.640;9.566;2024-03-23T06:05:27;7.32;;;3.40;;
36839;SDS011;24406;51.640;9.566;2024-03-23T06:10:29;4.60;;;2.90;;
36839;SDS011;24406;51.640;9.566;2024-03-23T06:15:33;3.83;;;2.70;;
36839;SDS011;24406;51.640;9.566;2024-03-23T06:20:38;3.85;;;2.80;;
36839;SDS011;24406;51.640;9.566;2024-03-23T06:25:43;3.83;;;2.90;;
36839;SDS011;24406;51.640;9.566;2024-03-23T06:30:50;6.97;;;2.58;;
36839;SDS011;24406;51.640;9.566;2024-03-23T06:35:52;3.75;;;1.67;;
36839;SDS011;24406;51.640;9.566;2024-03-23T06:40:54;3.33;;;2.22;;
36839;SDS011;24406;51.640;9.566;2024-03-23T06:45:58;3.40;;;1.48;;
36839;SDS011;24406;51.640;9.566;2024-03-23T06:51:00;3.03;;;1.60;;
36839;SDS011;24406;51.640;9.566;2024-03-23T06:56:07;5.40;;;2.13;;
36839;SDS011;24406;51.640;9.566;2024-03-23T07:01:11;1.88;;;1.52;;
36839;SDS011;24406;51.640;9.566;2024-03-23T07:06:17;8.50;;;3.08;;
36839;SDS011;24406;51.640;9.566;2024-03-23T07:11:46;6.68;;;3.83;;
36839;SDS011;24406;51.640;9.566;2024-03-23T07:17:24;3.63;;;2.35;;
36839;SDS011;24406;51.640;9.566;2024-03-23T07:22:49;5.22;;;3.15;;
36839;SDS011;24406;51.640;9.566;2024-03-23T07:29:06;4.70;;;2.17;;
36839;SDS011;24406;51.640;9.566;2024-03-23T07:35:00;3.70;;;2.97;;
36839;SDS011;24406;51.640;9.566;2024-03-23T07:46:04;4.38;;;2.30;;
36839;SDS011;24406;51.640;9.566;2024-03-23T07:52:15;6.47;;;3.22;;
36839;SDS011;24406;51.640;9.566;2024-03-23T07:57:19;5.53;;;2.30;;
36839;SDS011;24406;51.640;9.566;2024-03-23T08:02:21;7.88;;;2.30;;
36839;SDS011;24406;51.640;9.566;2024-03-23T08:07:25;7.75;;;2.38;;
36839;SDS011;24406;51.640;9.566;2024-03-23T08:12:27;7.88;;;2.63;;
36839;SDS011;24406;51.640;9.566;2024-03-23T08:17:30;4.97;;;2.65;;
36839;SDS011;24406;51.640;9.566;2024-03-23T08:22:37;8.48;;;2.85;;
36839;SDS011;24406;51.640;9.566;2024-03-23T08:28:05;10.25;;;2.80;;
36839;SDS011;24406;51.640;9.566;2024-03-23T08:33:14;7.97;;;3.70;;
36839;SDS011;24406;51.640;9.566;2024-03-23T08:38:18;9.90;;;3.53;;
36839;SDS011;24406;51.640;9.566;2024-03-23T08:43:19;14.68;;;3.75;;
36839;SDS011;24406;51.640;9.566;2024-03-23T08:48:21;8.25;;;3.97;;
36839;SDS011;24406;51.640;9.566;2024-03-23T08:53:28;10.70;;;4.88;;
36839;SDS011;24406;51.640;9.566;2024-03-23T08:58:31;12.75;;;5.07;;
36839;SDS011;24406;51.640;9.566;2024-03-23T09:03:36;11.48;;;5.00;;
36839;SDS011;24406;51.640;9.566;2024-03-23T09:08:41;11.07;;;6.50;;
36839;SDS011;24406;51.640;9.566;2024-03-23T09:13:43;13.32;;;7.20;;
36839;SDS011;24406;51.640;9.566;2024-03-23T09:18:45;13.40;;;7.55;;
36839;SDS011;24406;51.640;9.566;2024-03-23T09:23:48;16.20;;;6.95;;
36839;SDS011;24406;51.640;9.566;2024-03-23T09:28:50;17.73;;;8.88;;
36839;SDS011;24406;51.640;9.566;2024-03-23T09:33:52;20.95;;;9.27;;
36839;SDS011;24406;51.640;9.566;2024-03-23T09:38:55;22.23;;;9.82;;
36839;SDS011;24406;51.640;9.566;2024-03-23T09:43:57;19.70;;;9.93;;
36839;SDS011;24406;51.640;9.566;2024-03-23T09:48:59;18.23;;;9.25;;
36839;SDS011;24406;51.640;9.566;2024-03-23T09:54:03;17.67;;;9.65;;
36839;SDS011;24406;51.640;9.566;2024-03-23T09:59:06;17.40;;;10.07;;
36839;SDS011;24406;51.640;9.566;2024-03-23T10:04:09;20.88;;;10.25;;
36839;SDS011;24406;51.640;9.566;2024-03-23T10:09:17;16.45;;;9.77;;
36839;SDS011;24406;51.640;9.566;2024-03-23T10:14:24;20.15;;;9.27;;
36839;SDS011;24406;51.640;9.566;2024-03-23T10:19:30;13.65;;;9.85;;
36839;SDS011;24406;51.640;9.566;2024-03-23T10:24:35;12.30;;;7.22;;
36839;SDS011;24406;51.640;9.566;2024-03-23T10:29:37;10.32;;;6.10;;
36839;SDS011;24406;51.640;9.566;2024-03-23T10:34:42;13.32;;;7.15;;
36839;SDS011;24406;51.640;9.566;2024-03-23T10:39:48;10.50;;;6.20;;
36839;SDS011;24406;51.640;9.566;2024-03-23T10:44:54;9.15;;;5.78;;
36839;SDS011;24406;51.640;9.566;2024-03-23T10:49:56;11.27;;;6.20;;
36839;SDS011;24406;51.640;9.566;2024-03-23T11:12:50;9.30;;;4.30;;
36839;SDS011;24406;51.640;9.566;2024-03-23T11:18:04;9.93;;;4.15;;
36839;SDS011;24406;51.640;9.566;2024-03-23T11:23:26;8.57;;;3.72;;
36839;SDS011;24406;51.640;9.566;2024-03-23T11:33:46;10.70;;;6.50;;
36839;SDS011;24406;51.640;9.566;2024-03-23T11:39:50;12.17;;;7.40;;
36839;SDS011;24406;51.640;9.566;2024-03-23T11:45:24;8.30;;;6.70;;
36839;SDS011;24406;51.640;9.566;2024-03-23T11:50:31;4.88;;;4.07;;
36839;SDS011;24406;51.640;9.566;2024-03-23T11:55:45;5.80;;;3.58;;
36839;SDS011;24406;51.640;9.566;2024-03-23T12:01:13;4.35;;;3.08;;
36839;SDS011;24406;51.640;9.566;2024-03-23T12:06:21;2.50;;;2.30;;
36839;SDS011;24406;51.640;9.566;2024-03-23T12:16:42;3.67;;;2.08;;
36839;SDS011;24406;51.640;9.566;2024-03-23T12:21:44;1.88;;;1.77;;
36839;SDS011;24406;51.640;9.566;2024-03-23T12:26:48;4.15;;;2.60;;
36839;SDS011;24406;51.640;9.566;2024-03-23T12:32:01;5.13;;;2.70;;
36839;SDS011;24406;51.640;9.566;2024-03-23T12:37:18;2.08;;;1.90;;
36839;SDS011;24406;51.640;9.566;2024-03-23T12:42:24;5.93;;;3.75;;
36839;SDS011;24406;51.640;9.566;2024-03-23T12:48:00;4.10;;;2.22;;
36839;SDS011;24406;51.640;9.566;2024-03-23T12:53:18;2.55;;;2.00;;
36839;SDS011;24406;51.640;9.566;2024-03-23T13:04:08;2.92;;;2.28;;
36839;SDS011;24406;51.640;9.566;2024-03-23T13:09:49;4.88;;;3.17;;
36839;SDS011;24406;51.640;9.566;2024-03-23T13:14:58;2.90;;;2.60;;
36839;SDS011;24406;51.640;9.566;2024-03-23T13:32:46;8.52;;;5.70;;
36839;SDS011;24406;51.640;9.566;2024-03-23T13:38:05;5.43;;;4.13;;
36839;SDS011;24406;51.640;9.566;2024-03-23T13:43:14;5.20;;;4.22;;
36839;SDS011;24406;51.640;9.566;2024-03-23T14:01:04;5.38;;;3.78;;
36839;SDS011;24406;51.640;9.566;2024-03-23T14:06:12;5.38;;;4.00;;
36839;SDS011;24406;51.640;9.566;2024-03-23T14:11:18;4.30;;;3.85;;
36839;SDS011;24406;51.640;9.566;2024-03-23T14:22:32;3.80;;;3.05;;
36839;SDS011;24406;51.640;9.566;2024-03-23T14:27:43;4.85;;;2.70;;
36839;SDS011;24406;51.640;9.566;2024-03-23T14:32:57;5.25;;;2.80;;
36839;SDS011;24406;51.640;9.566;2024-03-23T14:38:11;3.03;;;2.70;;
36839;SDS011;24406;51.640;9.566;2024-03-23T14:43:44;3.33;;;2.10;;
36839;SDS011;24406;51.640;9.566;2024-03-23T14:48:52;4.72;;;2.53;;
36839;SDS011;24406;51.640;9.566;2024-03-23T14:54:21;3.15;;;2.20;;
36839;SDS011;24406;51.640;9.566;2024-03-23T15:06:04;4.97;;;3.03;;
36839;SDS011;24406;51.640;9.566;2024-03-23T15:18:28;5.78;;;2.60;;
36839;SDS011;24406;51.640;9.566;2024-03-23T15:23:53;6.00;;;3.75;;
36839;SDS011;24406;51.640;9.566;2024-03-23T15:29:13;6.18;;;3.00;;
36839;SDS011;24406;51.640;9.566;2024-03-23T15:34:20;5.30;;;3.45;;
36839;SDS011;24406;51.640;9.566;2024-03-23T15:39:26;5.10;;;2.53;;
36839;SDS011;24406;51.640;9.566;2024-03-23T15:44:33;5.47;;;2.22;;
36839;SDS011;24406;51.640;9.566;2024-03-23T15:49:37;1.92;;;1.73;;
36839;SDS011;24406;51.640;9.566;2024-03-23T15:54:43;2.42;;;2.10;;
36839;SDS011;24406;51.640;9.566;2024-03-23T15:59:50;2.45;;;2.25;;
36839;SDS011;24406;51.640;9.566;2024-03-23T16:04:59;1.75;;;1.63;;
36839;SDS011;24406;51.640;9.566;2024-03-23T16:10:06;4.25;;;2.35;;
36839;SDS011;24406;51.640;9.566;2024-03-23T16:15:10;3.22;;;2.47;;
36839;SDS011;24406;51.640;9.566;2024-03-23T16:20:14;4.40;;;3.83;;
36839;SDS011;24406;51.640;9.566;2024-03-23T16:25:21;5.78;;;3.72;;
36839;SDS011;24406;51.640;9.566;2024-03-23T16:30:24;5.70;;;3.90;;
36839;SDS011;24406;51.640;9.566;2024-03-23T16:35:29;5.63;;;2.90;;
36839;SDS011;24406;51.640;9.566;2024-03-23T16:40:32;6.93;;;3.28;;
36839;SDS011;24406;51.640;9.566;2024-03-23T16:45:34;9.27;;;5.97;;
36839;SDS011;24406;51.640;9.566;2024-03-23T16:50:38;5.68;;;2.70;;
36839;SDS011;24406;51.640;9.566;2024-03-23T16:55:46;4.57;;;2.90;;
36839;SDS011;24406;51.640;9.566;2024-03-23T17:00:54;7.30;;;3.00;;
36839;SDS011;24406;51.640;9.566;2024-03-23T17:06:05;3.45;;;3.00;;
36839;SDS011;24406;51.640;9.566;2024-03-23T17:11:07;3.38;;;3.08;;
36839;SDS011;24406;51.640;9.566;2024-03-23T17:16:09;4.47;;;3.17;;
36839;SDS011;24406;51.640;9.566;2024-03-23T17:21:18;6.85;;;3.00;;
36839;SDS011;24406;51.640;9.566;2024-03-23T17:32:05;3.80;;;3.00;;
36839;SDS011;24406;51.640;9.566;2024-03-23T17:37:09;4.30;;;3.38;;
36839;SDS011;24406;51.640;9.566;2024-03-23T17:42:11;8.32;;;5.57;;
36839;SDS011;24406;51.640;9.566;2024-03-23T17:47:15;10.07;;;6.03;;
36839;SDS011;24406;51.640;9.566;2024-03-23T17:52:20;7.28;;;5.80;;
36839;SDS011;24406;51.640;9.566;2024-03-23T17:57:25;15.32;;;8.75;;
36839;SDS011;24406;51.640;9.566;2024-03-23T18:02:36;14.02;;;7.60;;
36839;SDS011;24406;51.640;9.566;2024-03-23T18:07:39;7.40;;;6.07;;
36839;SDS011;24406;51.640;9.566;2024-03-23T18:12:41;8.93;;;7.95;;
36839;SDS011;24406;51.640;9.566;2024-03-23T18:17:46;9.68;;;6.65;;
36839;SDS011;24406;51.640;9.566;2024-03-23T18:22:50;6.97;;;4.82;;
36839;SDS011;24406;51.640;9.566;2024-03-23T18:27:51;5.90;;;4.50;;
36839;SDS011;24406;51.640;9.566;2024-03-23T18:32:54;6.72;;;5.40;;
36839;SDS011;24406;51.640;9.566;2024-03-23T18:37:57;11.85;;;9.82;;
36839;SDS011;24406;51.640;9.566;2024-03-23T18:42:58;10.45;;;9.25;;
36839;SDS011;24406;51.640;9.566;2024-03-23T18:48:00;10.38;;;6.28;;
36839;SDS011;24406;51.640;9.566;2024-03-23T18:53:04;9.90;;;5.68;;
36839;SDS011;24406;51.640;9.566;2024-03-23T18:58:05;6.53;;;5.60;;
36839;SDS011;24406;51.640;9.566;2024-03-23T19:03:07;6.43;;;4.10;;
36839;SDS011;24406;51.640;9.566;2024-03-23T19:08:10;7.80;;;3.50;;
36839;SDS011;24406;51.640;9.566;2024-03-23T19:13:11;4.90;;;2.90;;
36839;SDS011;24406;51.640;9.566;2024-03-23T19:18:13;4.50;;;2.70;;
36839;SDS011;24406;51.640;9.566;2024-03-23T19:23:16;3.65;;;2.25;;
36839;SDS011;24406;51.640;9.566;2024-03-23T19:28:17;2.83;;;1.98;;
36839;SDS011;24406;51.640;9.566;2024-03-23T19:33:20;2.50;;;1.55;;
36839;SDS011;24406;51.640;9.566;2024-03-23T19:38:23;2.08;;;1.90;;
36839;SDS011;24406;51.640;9.566;2024-03-23T19:43:26;4.03;;;2.03;;
36839;SDS011;24406;51.640;9.566;2024-03-23T19:48:28;6.38;;;4.55;;
36839;SDS011;24406;51.640;9.566;2024-03-23T19:53:31;4.90;;;2.78;;
36839;SDS011;24406;51.640;9.566;2024-03-23T19:58:33;4.10;;;2.42;;
36839;SDS011;24406;51.640;9.566;2024-03-23T20:03:34;3.53;;;1.90;;
36839;SDS011;24406;51.640;9.566;2024-03-23T20:08:38;4.43;;;1.90;;
36839;SDS011;24406;51.640;9.566;2024-03-23T20:13:39;2.83;;;1.88;;
36839;SDS011;24406;51.640;9.566;2024-03-23T20:18:41;3.15;;;1.70;;
36839;SDS011;24406;51.640;9.566;2024-03-23T20:23:44;7.60;;;1.58;;
36839;SDS011;24406;51.640;9.566;2024-03-23T20:28:46;4.60;;;2.45;;
36839;SDS011;24406;51.640;9.566;2024-03-23T20:33:47;3.33;;;2.70;;
36839;SDS011;24406;51.640;9.566;2024-03-23T20:38:50;3.67;;;3.10;;
36839;SDS011;24406;51.640;9.566;2024-03-23T20:43:52;5.90;;;3.17;;
36839;SDS011;24406;51.640;9.566;2024-03-23T20:48:54;5.22;;;3.50;;
36839;SDS011;24406;51.640;9.566;2024-03-23T20:53:58;3.08;;;2.80;;
36839;SDS011;24406;51.640;9.566;2024-03-23T20:59:00;6.18;;;4.95;;
36839;SDS011;24406;51.640;9.566;2024-03-23T21:04:01;11.07;;;5.25;;
36839;SDS011;24406;51.640;9.566;2024-03-23T21:09:04;11.18;;;7.95;;
36839;SDS011;24406;51.640;9.566;2024-03-23T21:14:07;9.40;;;6.55;;
36839;SDS011;24406;51.640;9.566;2024-03-23T21:19:09;13.57;;;5.70;;
36839;SDS011;24406;51.640;9.566;2024-03-23T21:24:16;10.95;;;7.13;;
36839;SDS011;24406;51.640;9.566;2024-03-23T21:29:18;8.02;;;5.45;;
36839;SDS011;24406;51.640;9.566;2024-03-23T21:34:19;5.70;;;4.30;;
36839;SDS011;24406;51.640;9.566;2024-03-23T21:39:22;4.00;;;2.92;;
36839;SDS011;24406;51.640;9.566;2024-03-23T21:44:24;7.30;;;4.80;;
36839;SDS011;24406;51.640;9.566;2024-03-23T21:49:26;4.88;;;3.50;;
36839;SDS011;24406;51.640;9.566;2024-03-23T21:54:28;5.07;;;3.92;;
36839;SDS011;24406;51.640;9.566;2024-03-23T21:59:30;4.13;;;3.72;;
36839;SDS011;24406;51.640;9.566;2024-03-23T22:04:33;8.93;;;4.10;;
36839;SDS011;24406;51.640;9.566;2024-03-23T22:09:36;5.07;;;3.65;;
36839;SDS011;24406;51.640;9.566;2024-03-23T22:14:37;5.03;;;4.43;;
36839;SDS011;24406;51.640;9.566;2024-03-23T22:19:39;5.97;;;4.20;;
36839;SDS011;24406;51.640;9.566;2024-03-23T22:24:42;5.38;;;4.15;;
36839;SDS011;24406;51.640;9.566;2024-03-23T22:29:47;5.40;;;4.90;;
36839;SDS011;24406;51.640;9.566;2024-03-23T22:34:48;6.45;;;4.10;;
36839;SDS011;24406;51.640;9.566;2024-03-23T22:39:51;4.70;;;4.30;;
36839;SDS011;24406;51.640;9.566;2024-03-23T22:44:53;7.65;;;4.75;;
36839;SDS011;24406;51.640;9.566;2024-03-23T22:49:54;6.90;;;4.78;;
36839;SDS011;24406;51.640;9.566;2024-03-23T22:54:57;7.28;;;4.45;;
36839;SDS011;24406;51.640;9.566;2024-03-23T22:59:59;5.47;;;4.20;;
36839;SDS011;24406;51.640;9.566;2024-03-23T23:05:00;4.68;;;4.28;;
36839;SDS011;24406;51.640;9.566;2024-03-23T23:10:06;5.38;;;4.35;;
36839;SDS011;24406;51.640;9.566;2024-03-23T23:15:11;5.03;;;4.63;;
36839;SDS011;24406;51.640;9.566;2024-03-23T23:20:12;5.75;;;4.35;;
36839;SDS011;24406;51.640;9.566;2024-03-23T23:25:16;6.05;;;4.70;;
36839;SDS011;24406;51.640;9.566;2024-03-23T23:30:17;5.28;;;4.78;;
36839;SDS011;24406;51.640;9.566;2024-03-23T23:35:19;8.88;;;5.07;;
36839;SDS011;24406;51.640;9.566;2024-03-23T23:40:22;6.07;;;4.82;;
36839;SDS011;24406;51.640;9.566;2024-03-23T23:45:23;5.20;;;4.72;;
36839;SDS011;24406;51.640;9.566;2024-03-23T23:50:25;6.03;;;5.03;;
36839;SDS011;24406;51.640;9.566;2024-03-23T23:55:28;5.60;;;4.85;;
